ROMMA est une association bénévole à but non lucratif. Votre soutien est indispensable : ADHERER à ROMMA ou FAIRE un DON

Briord - (01, Ain)

Bugey (281 m)   Longitude: 05° 29' 13" E   Latitude: 45° 46' 37" N Station partenaire n°15
 

Détail journalier du     <<     >>

Température Precipitation Humidité Pression Vent Dir Rafale Dir. rafale Ensol.
Heure (°C) (mm) (%) (hPa) (km/h) (km/h) (min)
01:00 13.704510081SSE18S0
02:00 13.204810083SE19S0
03:00 13.604710092SE18SE0
04:00 13.205510093SE23SSE0
05:00 13.405410081SE13SE0
06:00 15.204410076SE29SE0
07:00 13.205710074SE23SSE0
08:00 12.805410071SE15ESE0
09:00 16.604410065SE18E55
10:00 17.504410067SE21SE45
11:00 19.6035100610SE26ESE30
12:00 21.7035100611SE32SE40
13:00 21.2037100621SE52SSE25
14:00 20.604410077SE35SSE0
15:00 20.404410064SE31SE0
16:00 19.904610063SE27SE0
17:00 18.70511007011S0
18:00 15.206610085ONO31ONO0
19:00 12.807710085ONO21N0
20:00 11.30.48810094ONO21ONO0
21:00 9.70.49110102---16NO0
22:00 7.83.289101310NNO35NNO0
23:00 7.149010145NO23N0
minuit 6.65.493101600---0

Graphique du 25-04-2019

 

Serveur OMMA